Sint-Katelijne-Waver, Belgium
Current Conditions -  °F | °C
As of 7:20 AM on Saturday 29 Nov 2014 (Local Time) from EBAW Reporting Station
Haze Haze  
Wind Chill: 32°   Ceiling: Unl
Heat Index: 37°   Visibility: 3mi
Dew Point: 34°   Wind: 7mph
Humidity: 87%   Direction: 90°E
Pressure: 29.88"   Gusts: NA
Location:  51.07°N, 4.53°E
Report Text: EBAW 290620Z 09006KT 5000 BR NSC 03/01 Q1012 TEMPO 4000 BR
Loading
Personal Weather Stations






























Interactive Weather Map New forecast layout! Learn more

10-Day Weather Forecast

Advertisements
Track Severe Weather on mobile